sensor_id;sensor_type;location;lat;lon;timestamp;temperature;humidity
11762;DHT22;5938;47.098;15.474;2023-11-18T00:02:45;2.20;93.60
11762;DHT22;5938;47.098;15.474;2023-11-18T00:06:50;2.10;94.00
11762;DHT22;5938;47.098;15.474;2023-11-18T00:10:54;1.90;94.30
11762;DHT22;5938;47.098;15.474;2023-11-18T00:14:57;1.80;95.40
11762;DHT22;5938;47.098;15.474;2023-11-18T00:19:02;1.60;95.50
11762;DHT22;5938;47.098;15.474;2023-11-18T00:23:07;1.50;96.10
11762;DHT22;5938;47.098;15.474;2023-11-18T00:27:10;1.40;96.60
11762;DHT22;5938;47.098;15.474;2023-11-18T00:31:15;1.30;96.60
11762;DHT22;5938;47.098;15.474;2023-11-18T00:35:21;1.40;96.30
11762;DHT22;5938;47.098;15.474;2023-11-18T00:39:25;1.40;96.60
11762;DHT22;5938;47.098;15.474;2023-11-18T00:43:29;1.50;96.70
11762;DHT22;5938;47.098;15.474;2023-11-18T00:47:33;1.50;96.40
11762;DHT22;5938;47.098;15.474;2023-11-18T00:51:38;1.60;96.70
11762;DHT22;5938;47.098;15.474;2023-11-18T00:55:43;1.50;96.10
11762;DHT22;5938;47.098;15.474;2023-11-18T00:59:46;1.40;96.70
11762;DHT22;5938;47.098;15.474;2023-11-18T01:03:50;1.40;96.60
11762;DHT22;5938;47.098;15.474;2023-11-18T01:07:55;1.40;96.70
11762;DHT22;5938;47.098;15.474;2023-11-18T01:11:58;1.30;97.70
11762;DHT22;5938;47.098;15.474;2023-11-18T01:16:09;1.20;98.00
11762;DHT22;5938;47.098;15.474;2023-11-18T01:20:13;1.30;98.60
11762;DHT22;5938;47.098;15.474;2023-11-18T01:24:24;1.30;99.00
11762;DHT22;5938;47.098;15.474;2023-11-18T01:28:27;1.20;99.10
11762;DHT22;5938;47.098;15.474;2023-11-18T01:32:33;1.20;99.30
11762;DHT22;5938;47.098;15.474;2023-11-18T01:36:36;1.30;98.60
11762;DHT22;5938;47.098;15.474;2023-11-18T01:40:41;1.30;99.10
11762;DHT22;5938;47.098;15.474;2023-11-18T01:44:45;1.30;99.30
11762;DHT22;5938;47.098;15.474;2023-11-18T01:48:50;1.30;99.50
11762;DHT22;5938;47.098;15.474;2023-11-18T01:52:55;1.40;99.50
11762;DHT22;5938;47.098;15.474;2023-11-18T01:57:00;1.50;99.10
11762;DHT22;5938;47.098;15.474;2023-11-18T02:01:08;1.50;99.50
11762;DHT22;5938;47.098;15.474;2023-11-18T02:05:12;1.60;99.90
11762;DHT22;5938;47.098;15.474;2023-11-18T02:09:16;1.70;99.80
11762;DHT22;5938;47.098;15.474;2023-11-18T02:13:24;1.70;99.90
11762;DHT22;5938;47.098;15.474;2023-11-18T02:17:31;1.70;99.90
11762;DHT22;5938;47.098;15.474;2023-11-18T02:21:37;1.70;99.90
11762;DHT22;5938;47.098;15.474;2023-11-18T02:25:44;1.70;99.90
11762;DHT22;5938;47.098;15.474;2023-11-18T02:29:48;1.80;99.90
11762;DHT22;5938;47.098;15.474;2023-11-18T02:34:00;1.90;99.90
11762;DHT22;5938;47.098;15.474;2023-11-18T02:38:05;1.90;99.90
11762;DHT22;5938;47.098;15.474;2023-11-18T02:42:14;1.90;99.90
11762;DHT22;5938;47.098;15.474;2023-11-18T02:46:19;2.00;99.90
11762;DHT22;5938;47.098;15.474;2023-11-18T02:50:24;1.90;99.90
11762;DHT22;5938;47.098;15.474;2023-11-18T02:54:29;1.90;99.90
11762;DHT22;5938;47.098;15.474;2023-11-18T02:58:34;2.00;99.90
11762;DHT22;5938;47.098;15.474;2023-11-18T03:02:38;1.90;99.90
11762;DHT22;5938;47.098;15.474;2023-11-18T03:06:42;1.90;99.90
11762;DHT22;5938;47.098;15.474;2023-11-18T03:10:45;1.60;99.90
11762;DHT22;5938;47.098;15.474;2023-11-18T03:14:51;1.50;99.90
11762;DHT22;5938;47.098;15.474;2023-11-18T03:18:55;1.50;99.90
11762;DHT22;5938;47.098;15.474;2023-11-18T03:23:00;1.60;99.90
11762;DHT22;5938;47.098;15.474;2023-11-18T03:27:04;1.60;99.90
11762;DHT22;5938;47.098;15.474;2023-11-18T03:31:08;1.70;99.90
11762;DHT22;5938;47.098;15.474;2023-11-18T03:35:13;1.80;99.90
11762;DHT22;5938;47.098;15.474;2023-11-18T03:39:17;2.00;99.90
11762;DHT22;5938;47.098;15.474;2023-11-18T03:43:23;2.00;99.90
11762;DHT22;5938;47.098;15.474;2023-11-18T03:47:27;2.00;99.90
11762;DHT22;5938;47.098;15.474;2023-11-18T03:51:33;2.10;99.90
11762;DHT22;5938;47.098;15.474;2023-11-18T03:55:36;2.00;99.90
11762;DHT22;5938;47.098;15.474;2023-11-18T03:59:40;2.00;99.90
11762;DHT22;5938;47.098;15.474;2023-11-18T04:03:46;2.10;99.90
11762;DHT22;5938;47.098;15.474;2023-11-18T04:07:49;2.10;99.90
11762;DHT22;5938;47.098;15.474;2023-11-18T04:11:52;1.90;99.90
11762;DHT22;5938;47.098;15.474;2023-11-18T04:15:56;1.80;99.90
11762;DHT22;5938;47.098;15.474;2023-11-18T04:20:00;1.80;99.90
11762;DHT22;5938;47.098;15.474;2023-11-18T04:24:07;1.80;99.90
11762;DHT22;5938;47.098;15.474;2023-11-18T04:28:11;1.60;99.90
11762;DHT22;5938;47.098;15.474;2023-11-18T04:32:14;1.50;99.90
11762;DHT22;5938;47.098;15.474;2023-11-18T04:36:19;1.50;99.90
11762;DHT22;5938;47.098;15.474;2023-11-18T04:40:24;1.40;99.90
11762;DHT22;5938;47.098;15.474;2023-11-18T04:44:27;1.40;99.90
11762;DHT22;5938;47.098;15.474;2023-11-18T04:48:33;1.50;99.90
11762;DHT22;5938;47.098;15.474;2023-11-18T04:52:43;1.50;99.90
11762;DHT22;5938;47.098;15.474;2023-11-18T04:56:47;1.60;99.90
11762;DHT22;5938;47.098;15.474;2023-11-18T05:00:51;1.60;99.90
11762;DHT22;5938;47.098;15.474;2023-11-18T05:04:54;1.80;99.90
11762;DHT22;5938;47.098;15.474;2023-11-18T05:08:59;1.90;99.90
11762;DHT22;5938;47.098;15.474;2023-11-18T05:13:03;1.90;99.90
11762;DHT22;5938;47.098;15.474;2023-11-18T05:17:06;1.90;99.90
11762;DHT22;5938;47.098;15.474;2023-11-18T05:21:10;2.10;99.90
11762;DHT22;5938;47.098;15.474;2023-11-18T05:25:15;2.30;99.90
11762;DHT22;5938;47.098;15.474;2023-11-18T05:29:19;2.40;99.90
11762;DHT22;5938;47.098;15.474;2023-11-18T05:33:23;2.40;99.90
11762;DHT22;5938;47.098;15.474;2023-11-18T05:37:28;2.40;99.90
11762;DHT22;5938;47.098;15.474;2023-11-18T05:41:33;2.30;99.90
11762;DHT22;5938;47.098;15.474;2023-11-18T05:45:37;2.20;99.90
11762;DHT22;5938;47.098;15.474;2023-11-18T05:49:58;2.30;99.90
11762;DHT22;5938;47.098;15.474;2023-11-18T05:54:01;2.20;99.90
11762;DHT22;5938;47.098;15.474;2023-11-18T05:58:06;2.20;99.90
11762;DHT22;5938;47.098;15.474;2023-11-18T06:02:10;2.20;99.90
11762;DHT22;5938;47.098;15.474;2023-11-18T06:06:20;2.00;99.90
11762;DHT22;5938;47.098;15.474;2023-11-18T06:10:25;2.00;99.90
11762;DHT22;5938;47.098;15.474;2023-11-18T06:14:31;2.00;99.90
11762;DHT22;5938;47.098;15.474;2023-11-18T06:18:35;1.90;99.90
11762;DHT22;5938;47.098;15.474;2023-11-18T06:22:39;1.90;99.90
11762;DHT22;5938;47.098;15.474;2023-11-18T06:26:43;1.90;99.90
11762;DHT22;5938;47.098;15.474;2023-11-18T06:30:51;2.10;99.90
11762;DHT22;5938;47.098;15.474;2023-11-18T06:34:55;2.20;99.90
11762;DHT22;5938;47.098;15.474;2023-11-18T06:39:02;2.20;99.90
11762;DHT22;5938;47.098;15.474;2023-11-18T06:43:07;2.30;99.90
11762;DHT22;5938;47.098;15.474;2023-11-18T06:47:14;2.40;99.90
11762;DHT22;5938;47.098;15.474;2023-11-18T06:51:21;2.20;99.90
11762;DHT22;5938;47.098;15.474;2023-11-18T06:55:26;2.20;99.90
11762;DHT22;5938;47.098;15.474;2023-11-18T06:59:30;2.10;99.90
11762;DHT22;5938;47.098;15.474;2023-11-18T07:03:34;2.40;99.90
11762;DHT22;5938;47.098;15.474;2023-11-18T07:07:39;2.50;99.90
11762;DHT22;5938;47.098;15.474;2023-11-18T07:11:42;2.70;99.90
11762;DHT22;5938;47.098;15.474;2023-11-18T07:15:46;2.90;99.90
11762;DHT22;5938;47.098;15.474;2023-11-18T07:19:51;3.10;99.90
11762;DHT22;5938;47.098;15.474;2023-11-18T07:23:55;3.30;99.90
11762;DHT22;5938;47.098;15.474;2023-11-18T07:27:58;3.40;99.90
11762;DHT22;5938;47.098;15.474;2023-11-18T07:32:02;3.60;99.90
11762;DHT22;5938;47.098;15.474;2023-11-18T07:36:09;3.70;99.90
11762;DHT22;5938;47.098;15.474;2023-11-18T07:40:13;3.80;99.90
11762;DHT22;5938;47.098;15.474;2023-11-18T07:44:23;3.90;99.90
11762;DHT22;5938;47.098;15.474;2023-11-18T07:48:27;4.10;99.80
11762;DHT22;5938;47.098;15.474;2023-11-18T07:52:32;4.00;99.50
11762;DHT22;5938;47.098;15.474;2023-11-18T07:56:35;4.20;99.90
11762;DHT22;5938;47.098;15.474;2023-11-18T08:00:40;4.30;99.90
11762;DHT22;5938;47.098;15.474;2023-11-18T08:04:45;4.20;99.90
11762;DHT22;5938;47.098;15.474;2023-11-18T08:08:49;4.20;99.90
11762;DHT22;5938;47.098;15.474;2023-11-18T08:12:55;4.20;99.90
11762;DHT22;5938;47.098;15.474;2023-11-18T08:16:58;4.20;99.90
11762;DHT22;5938;47.098;15.474;2023-11-18T08:21:03;4.20;99.90
11762;DHT22;5938;47.098;15.474;2023-11-18T08:25:11;4.10;99.90
11762;DHT22;5938;47.098;15.474;2023-11-18T08:29:15;4.10;99.90
11762;DHT22;5938;47.098;15.474;2023-11-18T08:33:19;4.10;99.20
11762;DHT22;5938;47.098;15.474;2023-11-18T08:37:23;4.10;99.20
11762;DHT22;5938;47.098;15.474;2023-11-18T08:41:28;4.10;99.90
11762;DHT22;5938;47.098;15.474;2023-11-18T08:45:33;4.20;99.60
11762;DHT22;5938;47.098;15.474;2023-11-18T08:49:43;4.30;99.90
11762;DHT22;5938;47.098;15.474;2023-11-18T08:53:48;4.20;99.90
11762;DHT22;5938;47.098;15.474;2023-11-18T08:57:54;4.10;99.90
11762;DHT22;5938;47.098;15.474;2023-11-18T09:02:17;4.10;99.20
11762;DHT22;5938;47.098;15.474;2023-11-18T09:06:28;4.20;99.80
11762;DHT22;5938;47.098;15.474;2023-11-18T09:10:32;4.30;99.00
11762;DHT22;5938;47.098;15.474;2023-11-18T09:14:37;4.40;99.30
11762;DHT22;5938;47.098;15.474;2023-11-18T09:18:42;4.50;99.80
11762;DHT22;5938;47.098;15.474;2023-11-18T09:22:47;4.50;99.90
11762;DHT22;5938;47.098;15.474;2023-11-18T09:26:51;4.70;98.60
11762;DHT22;5938;47.098;15.474;2023-11-18T09:30:58;4.90;99.30
11762;DHT22;5938;47.098;15.474;2023-11-18T09:35:06;5.60;95.60
11762;DHT22;5938;47.098;15.474;2023-11-18T09:39:14;5.60;96.00
11762;DHT22;5938;47.098;15.474;2023-11-18T09:43:31;6.00;92.60
11762;DHT22;5938;47.098;15.474;2023-11-18T09:47:42;6.20;94.30
11762;DHT22;5938;47.098;15.474;2023-11-18T09:51:50;6.30;91.80
11762;DHT22;5938;47.098;15.474;2023-11-18T09:55:59;6.60;91.50
11762;DHT22;5938;47.098;15.474;2023-11-18T10:00:15;6.80;90.70
11762;DHT22;5938;47.098;15.474;2023-11-18T10:04:25;6.90;90.30
11762;DHT22;5938;47.098;15.474;2023-11-18T10:08:29;7.10;90.10
11762;DHT22;5938;47.098;15.474;2023-11-18T10:12:33;7.30;86.30
11762;DHT22;5938;47.098;15.474;2023-11-18T10:16:41;7.30;88.80
11762;DHT22;5938;47.098;15.474;2023-11-18T10:20:50;7.30;85.80
11762;DHT22;5938;47.098;15.474;2023-11-18T10:24:56;7.60;85.00
11762;DHT22;5938;47.098;15.474;2023-11-18T10:29:03;7.60;87.90
11762;DHT22;5938;47.098;15.474;2023-11-18T10:33:09;7.70;88.70
11762;DHT22;5938;47.098;15.474;2023-11-18T10:37:16;8.00;82.30
11762;DHT22;5938;47.098;15.474;2023-11-18T10:41:22;8.20;84.60
11762;DHT22;5938;47.098;15.474;2023-11-18T10:45:26;8.00;81.70
11762;DHT22;5938;47.098;15.474;2023-11-18T10:49:32;8.00;81.70
11762;DHT22;5938;47.098;15.474;2023-11-18T10:53:42;8.00;81.70
11762;DHT22;5938;47.098;15.474;2023-11-18T10:58:09;8.70;82.30
11762;DHT22;5938;47.098;15.474;2023-11-18T11:03:07;8.70;78.90
11762;DHT22;5938;47.098;15.474;2023-11-18T11:07:18;8.50;78.90
11762;DHT22;5938;47.098;15.474;2023-11-18T11:11:25;9.50;79.30
11762;DHT22;5938;47.098;15.474;2023-11-18T11:15:30;10.60;76.00
11762;DHT22;5938;47.098;15.474;2023-11-18T11:19:55;10.40;72.50
11762;DHT22;5938;47.098;15.474;2023-11-18T11:24:23;10.60;72.70
11762;DHT22;5938;47.098;15.474;2023-11-18T11:28:43;11.80;71.40
11762;DHT22;5938;47.098;15.474;2023-11-18T11:32:51;12.90;67.00
11762;DHT22;5938;47.098;15.474;2023-11-18T11:36:56;12.70;68.00
11762;DHT22;5938;47.098;15.474;2023-11-18T11:41:05;11.40;69.10
11762;DHT22;5938;47.098;15.474;2023-11-18T11:45:12;9.70;72.90
11762;DHT22;5938;47.098;15.474;2023-11-18T11:49:23;9.10;74.70
11762;DHT22;5938;47.098;15.474;2023-11-18T11:53:33;9.40;74.90
11762;DHT22;5938;47.098;15.474;2023-11-18T11:57:41;9.60;74.70
11762;DHT22;5938;47.098;15.474;2023-11-18T12:01:48;9.70;72.70
11762;DHT22;5938;47.098;15.474;2023-11-18T12:05:55;9.60;71.80
11762;DHT22;5938;47.098;15.474;2023-11-18T12:10:14;10.50;69.00
11762;DHT22;5938;47.098;15.474;2023-11-18T12:14:23;12.30;65.20
11762;DHT22;5938;47.098;15.474;2023-11-18T12:18:41;14.70;60.50
11762;DHT22;5938;47.098;15.474;2023-11-18T12:23:04;14.60;59.50
11762;DHT22;5938;47.098;15.474;2023-11-18T12:27:43;16.50;59.40
11762;DHT22;5938;47.098;15.474;2023-11-18T12:31:54;16.90;54.80
11762;DHT22;5938;47.098;15.474;2023-11-18T12:40:58;17.60;54.10
11762;DHT22;5938;47.098;15.474;2023-11-18T12:45:21;17.20;52.00
11762;DHT22;5938;47.098;15.474;2023-11-18T12:49:30;18.10;50.40
11762;DHT22;5938;47.098;15.474;2023-11-18T12:53:36;18.30;51.00
11762;DHT22;5938;47.098;15.474;2023-11-18T12:57:46;18.70;50.60
11762;DHT22;5938;47.098;15.474;2023-11-18T13:01:50;18.00;50.60
11762;DHT22;5938;47.098;15.474;2023-11-18T13:05:56;17.10;52.00
11762;DHT22;5938;47.098;15.474;2023-11-18T13:09:59;13.40;56.00
11762;DHT22;5938;47.098;15.474;2023-11-18T13:14:05;11.80;60.00
11762;DHT22;5938;47.098;15.474;2023-11-18T13:18:10;10.70;63.60
11762;DHT22;5938;47.098;15.474;2023-11-18T13:22:17;9.60;70.30
11762;DHT22;5938;47.098;15.474;2023-11-18T13:26:29;9.00;71.00
11762;DHT22;5938;47.098;15.474;2023-11-18T13:30:38;8.60;70.40
11762;DHT22;5938;47.098;15.474;2023-11-18T13:34:42;8.40;71.70
11762;DHT22;5938;47.098;15.474;2023-11-18T13:38:49;8.20;71.60
11762;DHT22;5938;47.098;15.474;2023-11-18T13:43:02;8.00;73.80
11762;DHT22;5938;47.098;15.474;2023-11-18T13:47:12;8.00;71.40
11762;DHT22;5938;47.098;15.474;2023-11-18T13:51:16;8.00;71.40
11762;DHT22;5938;47.098;15.474;2023-11-18T13:55:22;8.00;73.50
11762;DHT22;5938;47.098;15.474;2023-11-18T13:59:30;7.80;72.50
11762;DHT22;5938;47.098;15.474;2023-11-18T14:03:36;7.80;72.40
11762;DHT22;5938;47.098;15.474;2023-11-18T14:07:40;7.80;71.30
11762;DHT22;5938;47.098;15.474;2023-11-18T14:11:46;7.80;71.30
11762;DHT22;5938;47.098;15.474;2023-11-18T14:15:50;7.80;73.10
11762;DHT22;5938;47.098;15.474;2023-11-18T14:19:58;7.70;72.40
11762;DHT22;5938;47.098;15.474;2023-11-18T14:24:02;7.60;73.40
11762;DHT22;5938;47.098;15.474;2023-11-18T14:28:06;7.50;74.90
11762;DHT22;5938;47.098;15.474;2023-11-18T14:32:10;7.50;74.90
11762;DHT22;5938;47.098;15.474;2023-11-18T14:36:17;7.20;76.70
11762;DHT22;5938;47.098;15.474;2023-11-18T14:40:22;7.20;75.90
11762;DHT22;5938;47.098;15.474;2023-11-18T14:44:26;7.10;75.80
11762;DHT22;5938;47.098;15.474;2023-11-18T14:48:29;6.80;80.60
11762;DHT22;5938;47.098;15.474;2023-11-18T14:52:35;6.70;78.20
11762;DHT22;5938;47.098;15.474;2023-11-18T14:56:43;6.50;80.40
11762;DHT22;5938;47.098;15.474;2023-11-18T15:00:49;6.20;83.80
11762;DHT22;5938;47.098;15.474;2023-11-18T15:04:52;6.00;83.30
11762;DHT22;5938;47.098;15.474;2023-11-18T15:08:57;6.00;82.60
11762;DHT22;5938;47.098;15.474;2023-11-18T15:13:01;6.00;83.20
11762;DHT22;5938;47.098;15.474;2023-11-18T15:17:05;6.00;80.20
11762;DHT22;5938;47.098;15.474;2023-11-18T15:21:10;6.20;81.50
11762;DHT22;5938;47.098;15.474;2023-11-18T15:25:19;6.50;80.40
11762;DHT22;5938;47.098;15.474;2023-11-18T15:29:22;6.40;80.30
11762;DHT22;5938;47.098;15.474;2023-11-18T15:33:35;6.10;81.90
11762;DHT22;5938;47.098;15.474;2023-11-18T15:37:40;5.70;84.10
11762;DHT22;5938;47.098;15.474;2023-11-18T15:41:46;5.30;86.70
11762;DHT22;5938;47.098;15.474;2023-11-18T15:45:50;5.60;83.90
11762;DHT22;5938;47.098;15.474;2023-11-18T15:49:53;5.40;86.80
11762;DHT22;5938;47.098;15.474;2023-11-18T15:53:57;5.30;86.70
11762;DHT22;5938;47.098;15.474;2023-11-18T15:58:02;5.40;85.00
11762;DHT22;5938;47.098;15.474;2023-11-18T16:02:08;5.30;86.70
11762;DHT22;5938;47.098;15.474;2023-11-18T16:06:12;5.40;86.50
11762;DHT22;5938;47.098;15.474;2023-11-18T16:10:15;5.50;85.40
11762;DHT22;5938;47.098;15.474;2023-11-18T16:14:25;5.40;86.10
11762;DHT22;5938;47.098;15.474;2023-11-18T16:18:31;5.50;85.80
11762;DHT22;5938;47.098;15.474;2023-11-18T16:22:37;5.30;86.90
11762;DHT22;5938;47.098;15.474;2023-11-18T16:26:42;5.50;86.00
11762;DHT22;5938;47.098;15.474;2023-11-18T16:30:50;5.50;85.50
11762;DHT22;5938;47.098;15.474;2023-11-18T16:34:55;5.70;86.00
11762;DHT22;5938;47.098;15.474;2023-11-18T16:38:59;5.50;86.10
11762;DHT22;5938;47.098;15.474;2023-11-18T16:43:03;5.70;84.80
11762;DHT22;5938;47.098;15.474;2023-11-18T16:47:09;5.80;84.80
11762;DHT22;5938;47.098;15.474;2023-11-18T16:51:14;5.80;84.20
11762;DHT22;5938;47.098;15.474;2023-11-18T16:55:18;5.70;83.80
11762;DHT22;5938;47.098;15.474;2023-11-18T16:59:25;5.40;86.70
11762;DHT22;5938;47.098;15.474;2023-11-18T17:03:30;5.00;88.80
11762;DHT22;5938;47.098;15.474;2023-11-18T17:07:35;4.60;88.70
11762;DHT22;5938;47.098;15.474;2023-11-18T17:11:39;4.40;90.30
11762;DHT22;5938;47.098;15.474;2023-11-18T17:15:43;4.60;88.70
11762;DHT22;5938;47.098;15.474;2023-11-18T17:19:50;4.30;90.40
11762;DHT22;5938;47.098;15.474;2023-11-18T17:24:00;4.00;90.70
11762;DHT22;5938;47.098;15.474;2023-11-18T17:28:04;3.80;91.50
11762;DHT22;5938;47.098;15.474;2023-11-18T17:32:08;3.80;91.70
11762;DHT22;5938;47.098;15.474;2023-11-18T17:36:16;3.80;91.10
11762;DHT22;5938;47.098;15.474;2023-11-18T17:40:22;3.90;91.90
11762;DHT22;5938;47.098;15.474;2023-11-18T17:44:25;3.80;92.10
11762;DHT22;5938;47.098;15.474;2023-11-18T17:48:34;3.50;93.30
11762;DHT22;5938;47.098;15.474;2023-11-18T17:52:41;3.10;93.50
11762;DHT22;5938;47.098;15.474;2023-11-18T17:56:47;2.80;94.90
11762;DHT22;5938;47.098;15.474;2023-11-18T18:00:51;2.70;95.80
11762;DHT22;5938;47.098;15.474;2023-11-18T18:04:56;2.50;97.10
11762;DHT22;5938;47.098;15.474;2023-11-18T18:09:02;2.40;97.00
11762;DHT22;5938;47.098;15.474;2023-11-18T18:13:06;2.30;97.00
11762;DHT22;5938;47.098;15.474;2023-11-18T18:17:12;2.00;97.50
11762;DHT22;5938;47.098;15.474;2023-11-18T18:21:16;1.90;98.80
11762;DHT22;5938;47.098;15.474;2023-11-18T18:25:21;1.80;99.50
11762;DHT22;5938;47.098;15.474;2023-11-18T18:29:26;1.70;99.80
11762;DHT22;5938;47.098;15.474;2023-11-18T18:33:29;1.60;99.90
11762;DHT22;5938;47.098;15.474;2023-11-18T18:37:34;1.50;99.90
11762;DHT22;5938;47.098;15.474;2023-11-18T18:41:40;1.40;99.90
11762;DHT22;5938;47.098;15.474;2023-11-18T18:45:44;1.20;99.90
11762;DHT22;5938;47.098;15.474;2023-11-18T18:49:49;1.10;99.90
11762;DHT22;5938;47.098;15.474;2023-11-18T18:53:56;0.90;99.90
11762;DHT22;5938;47.098;15.474;2023-11-18T18:58:01;0.70;99.90
11762;DHT22;5938;47.098;15.474;2023-11-18T19:02:05;0.70;99.90
11762;DHT22;5938;47.098;15.474;2023-11-18T19:06:11;0.70;99.90
11762;DHT22;5938;47.098;15.474;2023-11-18T19:10:14;0.60;99.90
11762;DHT22;5938;47.098;15.474;2023-11-18T19:14:20;0.40;99.90
11762;DHT22;5938;47.098;15.474;2023-11-18T19:18:25;0.30;99.90
11762;DHT22;5938;47.098;15.474;2023-11-18T19:22:29;0.20;99.90
11762;DHT22;5938;47.098;15.474;2023-11-18T19:26:34;0.20;99.90
11762;DHT22;5938;47.098;15.474;2023-11-18T19:30:42;0.00;99.90
11762;DHT22;5938;47.098;15.474;2023-11-18T19:34:46;-0.10;99.90
11762;DHT22;5938;47.098;15.474;2023-11-18T19:38:51;-0.50;99.90
11762;DHT22;5938;47.098;15.474;2023-11-18T19:42:54;-0.10;99.90
11762;DHT22;5938;47.098;15.474;2023-11-18T19:47:05;-0.10;99.90
11762;DHT22;5938;47.098;15.474;2023-11-18T19:51:09;-0.20;99.90
11762;DHT22;5938;47.098;15.474;2023-11-18T19:55:17;-0.20;99.90
11762;DHT22;5938;47.098;15.474;2023-11-18T19:59:23;-0.40;99.90
11762;DHT22;5938;47.098;15.474;2023-11-18T20:03:29;-0.50;99.90
11762;DHT22;5938;47.098;15.474;2023-11-18T20:07:36;-0.20;99.90
11762;DHT22;5938;47.098;15.474;2023-11-18T20:11:47;-0.30;99.90
11762;DHT22;5938;47.098;15.474;2023-11-18T20:15:53;-0.30;99.90
11762;DHT22;5938;47.098;15.474;2023-11-18T20:20:02;-0.50;99.90
11762;DHT22;5938;47.098;15.474;2023-11-18T20:24:08;-0.40;99.90
11762;DHT22;5938;47.098;15.474;2023-11-18T20:28:12;-0.40;99.90
11762;DHT22;5938;47.098;15.474;2023-11-18T20:32:18;-0.50;99.90
11762;DHT22;5938;47.098;15.474;2023-11-18T20:36:23;-0.40;99.90
11762;DHT22;5938;47.098;15.474;2023-11-18T20:40:29;-0.50;99.90
11762;DHT22;5938;47.098;15.474;2023-11-18T20:44:34;-0.50;99.90
11762;DHT22;5938;47.098;15.474;2023-11-18T20:48:40;-0.50;99.90
11762;DHT22;5938;47.098;15.474;2023-11-18T20:52:46;-0.50;99.90
11762;DHT22;5938;47.098;15.474;2023-11-18T20:56:51;-0.40;99.90
11762;DHT22;5938;47.098;15.474;2023-11-18T21:00:56;-0.20;99.90
11762;DHT22;5938;47.098;15.474;2023-11-18T21:05:00;-0.10;99.90
11762;DHT22;5938;47.098;15.474;2023-11-18T21:09:05;0.00;99.90
11762;DHT22;5938;47.098;15.474;2023-11-18T21:13:09;0.10;99.90
11762;DHT22;5938;47.098;15.474;2023-11-18T21:17:13;0.20;99.90
11762;DHT22;5938;47.098;15.474;2023-11-18T21:21:20;0.40;99.90
11762;DHT22;5938;47.098;15.474;2023-11-18T21:25:25;0.60;99.90
11762;DHT22;5938;47.098;15.474;2023-11-18T21:29:30;0.70;99.90
11762;DHT22;5938;47.098;15.474;2023-11-18T21:33:35;0.80;99.90
11762;DHT22;5938;47.098;15.474;2023-11-18T21:37:44;0.80;99.90
11762;DHT22;5938;47.098;15.474;2023-11-18T21:41:50;0.90;99.90
11762;DHT22;5938;47.098;15.474;2023-11-18T21:45:53;0.90;99.90
11762;DHT22;5938;47.098;15.474;2023-11-18T21:49:57;1.00;99.90
11762;DHT22;5938;47.098;15.474;2023-11-18T21:54:02;1.10;99.90
11762;DHT22;5938;47.098;15.474;2023-11-18T21:58:07;1.20;99.90
11762;DHT22;5938;47.098;15.474;2023-11-18T22:02:11;1.30;99.90
11762;DHT22;5938;47.098;15.474;2023-11-18T22:06:15;1.30;99.90
11762;DHT22;5938;47.098;15.474;2023-11-18T22:10:18;1.40;99.90
11762;DHT22;5938;47.098;15.474;2023-11-18T22:14:24;1.40;99.90
11762;DHT22;5938;47.098;15.474;2023-11-18T22:18:28;1.40;99.90
11762;DHT22;5938;47.098;15.474;2023-11-18T22:22:32;1.50;99.90
11762;DHT22;5938;47.098;15.474;2023-11-18T22:26:36;1.40;99.90
11762;DHT22;5938;47.098;15.474;2023-11-18T22:30:41;1.50;99.90
11762;DHT22;5938;47.098;15.474;2023-11-18T22:34:47;1.60;99.90
11762;DHT22;5938;47.098;15.474;2023-11-18T22:38:51;1.60;99.90
11762;DHT22;5938;47.098;15.474;2023-11-18T22:42:54;1.60;99.90
11762;DHT22;5938;47.098;15.474;2023-11-18T22:47:00;1.60;99.90
11762;DHT22;5938;47.098;15.474;2023-11-18T22:51:05;1.60;99.90
11762;DHT22;5938;47.098;15.474;2023-11-18T22:55:09;1.70;99.90
11762;DHT22;5938;47.098;15.474;2023-11-18T22:59:16;1.70;99.90
11762;DHT22;5938;47.098;15.474;2023-11-18T23:03:23;1.80;99.90
11762;DHT22;5938;47.098;15.474;2023-11-18T23:07:28;1.80;99.90
11762;DHT22;5938;47.098;15.474;2023-11-18T23:11:32;1.90;99.90
11762;DHT22;5938;47.098;15.474;2023-11-18T23:15:36;1.90;99.90
11762;DHT22;5938;47.098;15.474;2023-11-18T23:19:42;1.80;99.90
11762;DHT22;5938;47.098;15.474;2023-11-18T23:23:51;1.90;99.90
11762;DHT22;5938;47.098;15.474;2023-11-18T23:27:54;1.80;99.90
11762;DHT22;5938;47.098;15.474;2023-11-18T23:32:04;2.00;99.90
11762;DHT22;5938;47.098;15.474;2023-11-18T23:36:14;1.90;99.90
11762;DHT22;5938;47.098;15.474;2023-11-18T23:40:17;1.90;99.90
11762;DHT22;5938;47.098;15.474;2023-11-18T23:44:21;2.00;99.90
11762;DHT22;5938;47.098;15.474;2023-11-18T23:48:26;2.10;99.90
11762;DHT22;5938;47.098;15.474;2023-11-18T23:52:32;2.20;99.90
11762;DHT22;5938;47.098;15.474;2023-11-18T23:56:36;2.10;99.90
